Triunfo, Brazil
Current Conditions -  °F | °C
As of 9:00 AM on Tuesday 27 Jan 2015 (Local Time) from SBJU Reporting Station
Few Clouds Few Clouds  
Wind Chill: 84°   Ceiling: Unl
Heat Index: 90°   Visibility: 6mi
Dew Point: 72°   Wind: 3mph
Humidity: 66%   Direction: 30°NNE
Pressure: 30.06"   Gusts: NA
Location:  7.84°S, 38.1°W
Report Text: SBJU 271200Z 03003KT 9999 FEW020 29/22 Q1018
Loading
Personal Weather Stations






























Interactive Weather Map New forecast layout! Learn more

10-Day Weather Forecast

Advertisements
Track Severe Weather on mobile